Curtis Field Brady US
ICAO: KBBD
IATA: BBD
Category: Medium
Scheduled Services: No

Elevation: 1827 ft
TransAlt. 18000 ft.

Airport Communications:
AWOS 3:118.375
HOUSTON CNTR:132.35
CTAF/UNICOM:122.8

KBBD Zoom In..

Runways:

(A) RW 08 length 3520 ft width 110 ft
---- / hdg 86

(B) RW 17 length 4605 ft width 75 ft
---- / hdg 173

(C) RW 26 length 3520 ft width 110 ft
---- / hdg 266

(D) RW 35 length 4605 ft width 75 ft
---- / hdg 353

Location; KBBD
Day. 26 / Time. 13.55 Zulu
* Altimeter: 29.90
* Temperature: 26° c. 78.8°f.
* Wind from: 230° Speed 12 kn with Gusts up to 18 kn.
Dewpoint: 20° c.
Visibility: 10 Statute Miles.
Clouds: Clear (automated report).

KBBD 261355Z AUTO 23012G18KT 10SM CLR 26/20 A2990 RMK AO2


Wind From 230°
Speed 12 kn.

 
 
jpsmedia.com for Web Design SOUNDCLOUD worldairports.se 2018   terms of use